Date,TemperatureHighF,TemperatureAvgF,TemperatureLowF,DewpointHighF,DewpointAvgF,DewpointLowF,HumidityHigh,HumidityAvg,HumidityLow,PressureMaxIn,PressureMinIn,WindSpeedMaxMPH,WindSpeedAvgMPH,GustSpeedMaxMPH,PrecipitationSumIn
2013-1-1,42.1,36.6,32.4,19.9,16.6,12.9,52,44,38,32.04,31.92,4,0,8,0.00
2013-1-2,34.5,31.0,25.3,18.2,7.7,1.4,51,38,30,32.22,32.01,5,0,10,0.00
2013-1-3,35.6,27.5,17.2,12.2,5.9,0.9,53,40,32,32.22,32.13,4,0,7,0.00
2013-1-4,37.9,33.1,30.4,10.0,7.7,5.3,40,34,31,32.22,32.13,7,1,11,0.00
2013-1-5,39.4,33.6,29.8,17.3,9.9,5.5,52,37,29,32.37,32.16,7,1,17,0.00
2013-1-6,43.2,36.3,28.6,22.6,17.4,14.0,57,47,34,32.19,32.04,4,0,6,0.00
2013-1-7,40.6,34.8,23.7,18.1,12.8,8.7,53,40,30,32.46,32.19,5,0,11,0.00
2013-1-8,42.8,28.6,18.1,26.1,14.1,4.5,63,54,45,32.40,32.34,0,0,4,0.00
2013-1-9,47.3,34.8,23.4,38.3,20.4,11.1,74,56,31,32.40,32.22,6,0,10,0.00
2013-1-10,52.2,41.9,34.3,19.8,16.3,12.4,51,36,26,32.60,32.40,5,0,8,0.00
2013-1-11,47.8,39.7,33.3,34.3,25.4,18.8,79,57,39,32.51,32.13,5,0,9,0.00
2013-1-12,53.6,44.2,39.7,49.2,38.9,33.5,87,81,76,32.19,32.13,0,0,4,0.00
2013-1-13,59.7,48.5,39.6,51.8,42.0,33.9,89,78,66,32.13,31.92,2,0,4,0.00
2013-1-14,59.0,49.5,39.0,55.3,34.3,18.2,94,59,32,32.31,31.95,7,1,13,0.00
2013-1-15,42.1,37.9,34.5,32.6,27.5,20.3,79,67,46,32.31,32.13,3,0,6,0.00
2013-1-16,39.0,36.6,34.0,37.2,33.3,27.2,93,88,75,32.13,31.87,5,0,7,0.00
2013-1-17,42.1,38.0,34.3,38.6,21.9,13.1,93,55,36,32.16,32.01,4,0,9,0.00
2013-1-18,36.0,31.0,24.3,17.7,5.3,-0.4,50,34,22,32.49,32.10,8,1,14,0.00
2013-1-19,53.2,37.8,25.5,18.0,12.0,7.6,50,36,23,32.37,31.95,4,0,8,0.00
2013-1-20,53.1,40.5,31.1,18.4,8.4,-1.5,47,27,18,32.10,31.87,7,2,13,0.00
2013-1-21,40.6,31.0,23.7,9.8,3.1,-6.5,40,31,23,32.13,31.84,8,1,15,0.00
2013-1-22,23.9,16.1,11.3,-2.0,-12.4,-16.1,32,27,25,32.28,31.98,8,2,12,0.00
2013-1-23,27.0,18.0,9.7,-3.9,-11.5,-18.1,33,26,23,32.28,32.10,5,0,8,0.00
2013-1-24,26.6,18.8,12.2,3.1,-4.0,-14.5,54,37,26,32.49,32.04,8,1,13,0.00
2013-1-25,25.0,18.9,11.7,5.8,-2.4,-12.9,52,39,29,32.46,32.01,4,0,7,0.00
2013-1-26,33.6,25.7,16.2,17.2,8.6,1.0,57,49,34,32.43,32.04,4,0,8,0.00
2013-1-27,35.2,26.0,16.2,12.1,5.1,-2.0,51,41,32,32.54,32.40,4,0,6,0.00
2013-1-28,44.1,35.8,27.3,37.3,26.4,11.5,79,69,51,32.43,32.04,0,0,5,0.00
2013-1-29,67.5,51.0,39.7,56.1,41.0,33.8,86,70,42,32.13,31.98,4,0,6,0.00
2013-1-30,70.0,55.7,45.0,54.6,48.9,36.3,95,79,42,31.98,31.33,6,0,17,0.95
2013-1-31,54.5,37.0,27.5,53.4,15.5,0.8,97,44,27,31.90,31.25,11,2,22,0.16
2013-2-1,29.3,22.3,12.7,16.4,-0.8,-10.7,69,37,27,32.34,31.84,9,2,16,0.00
2013-2-2,30.9,19.6,7.7,7.1,-2.8,-15.3,49,37,32,32.34,31.98,6,0,11,0.00
2013-2-3,36.9,28.8,22.3,24.0,12.4,-1.0,61,51,32,31.98,31.81,7,0,11,0.00
2013-2-4,39.2,29.8,22.1,16.5,5.3,-2.9,55,36,28,32.07,31.87,7,1,13,0.00
2013-2-5,39.7,33.7,29.5,29.3,23.8,15.6,74,67,55,31.95,31.84,3,0,5,0.00
2013-2-6,40.6,34.5,24.6,29.9,17.5,9.4,80,52,32,32.34,31.95,5,0,11,0.00
2013-2-7,40.3,31.5,22.5,24.3,15.7,9.1,68,52,40,32.40,32.22,6,1,10,0.00
2013-2-8,43.7,36.3,31.3,29.2,19.9,7.7,67,52,36,32.22,31.84,9,1,15,0.00
2013-2-9,41.0,31.8,22.1,9.3,4.6,-1.2,43,32,21,32.37,32.01,9,2,20,0.00
2013-2-10,46.2,30.3,13.5,14.7,6.2,-3.3,54,37,25,32.43,32.16,8,1,11,0.00
2013-2-11,65.5,48.3,35.6,45.9,24.2,8.8,79,44,17,32.16,31.72,7,1,11,0.00
2013-2-12,56.8,45.1,33.3,16.3,11.1,4.3,35,25,18,31.98,31.87,10,1,13,0.00
2013-2-13,46.4,34.1,24.3,24.9,15.6,6.5,70,47,32,31.92,31.63,5,0,6,0.00
2013-2-14,50.5,36.1,26.8,27.7,18.0,12.4,78,49,28,32.01,31.78,5,0,11,0.00
2013-2-15,52.9,36.0,24.6,31.4,20.5,12.7,70,55,28,32.04,31.95,6,0,9,0.00
2013-2-16,39.2,33.2,24.6,23.3,10.9,-2.3,65,41,27,32.01,31.90,5,0,8,0.00
2013-2-17,31.1,23.7,20.1,11.2,-0.4,-6.1,63,35,26,32.19,31.90,9,2,15,0.00
2013-2-18,43.9,27.7,14.2,8.4,0.2,-9.1,41,31,20,32.34,32.10,6,0,10,0.00
2013-2-19,54.5,39.5,25.5,31.7,16.6,4.9,72,40,28,32.10,31.72,7,1,17,0.00
2013-2-20,36.5,29.1,21.6,6.3,0.7,-7.5,32,29,24,32.16,31.87,8,2,15,0.00
2013-2-21,37.4,27.5,21.7,5.8,-0.1,-5.3,34,30,24,32.34,32.10,6,2,15,0.00
2013-2-22,33.4,30.0,25.0,17.7,11.3,1.0,54,46,34,32.34,32.16,6,1,9,0.00
2013-2-23,54.3,38.5,32.0,27.9,21.9,17.4,68,52,35,32.16,31.87,5,0,6,0.00
2013-2-24,51.3,38.0,29.5,30.1,16.3,2.5,76,45,21,32.16,31.87,8,1,15,0.00
2013-2-25,48.2,32.5,23.0,13.1,7.3,1.7,48,35,24,32.22,32.13,5,0,9,0.00
2013-2-26,37.9,30.8,20.8,33.8,18.8,3.6,88,62,44,32.22,31.69,5,0,10,0.00
2013-2-27,54.5,42.0,36.1,46.7,28.8,17.3,98,66,27,31.75,31.60,4,0,7,0.00
2013-2-28,46.4,39.6,35.1,23.3,15.8,11.9,52,38,28,31.81,31.69,7,0,10,0.00
2013-3-1,41.5,36.9,31.6,16.1,11.9,7.4,43,36,29,31.95,31.81,5,1,10,0.00
2013-3-2,37.6,31.8,27.9,8.6,6.0,2.2,39,33,29,31.92,31.84,6,1,13,0.00
2013-3-3,40.6,31.2,25.7,8.3,4.6,0.3,41,33,23,31.95,31.87,8,2,14,0.00
2013-3-4,41.5,31.9,23.7,6.9,2.1,-1.5,34,28,21,32.04,31.95,9,2,13,0.00
2013-3-5,53.4,39.2,29.8,15.8,7.6,2.0,47,27,21,32.07,31.84,6,1,11,0.00
2013-3-6,38.1,34.5,32.5,34.1,23.6,15.4,91,66,42,32.07,31.72,7,1,13,0.00
2013-3-7,42.8,37.9,34.5,16.6,14.1,10.8,47,38,29,32.22,32.04,7,1,11,0.00
2013-3-8,42.8,36.8,32.9,18.1,13.5,10.4,50,38,30,32.34,32.19,8,2,14,0.00
2013-3-9,54.9,39.1,28.2,15.6,12.6,9.5,46,35,20,32.40,32.31,4,0,9,0.00
2013-3-10,64.0,41.7,23.5,23.5,14.6,9.0,61,36,18,0.00,40.00,8,1,11,0.00
2013-3-11,58.8,45.4,32.0,37.2,23.1,13.2,57,43,24,32.16,31.84,8,1,13,0.00
2013-3-12,56.8,48.3,37.6,42.6,28.9,11.3,85,50,27,31.95,31.75,9,2,17,0.00
2013-3-13,50.2,37.1,28.8,24.8,11.3,5.0,61,35,21,32.10,31.87,9,1,15,0.00
2013-3-14,44.8,34.8,27.9,8.8,5.1,1.5,40,29,20,32.13,32.07,8,4,15,0.00
2013-3-16,44.8,40.1,37.8,28.7,25.1,23.9,59,55,49,31.92,31.72,3,0,8,0.00
2013-3-17,41.2,37.3,34.9,25.8,17.1,9.9,63,45,29,32.22,31.92,4,0,6,0.00
2013-3-18,35.6,33.6,31.8,27.0,21.0,13.4,77,60,40,32.28,31.90,6,0,11,0.00
2013-3-19,58.1,41.8,32.9,36.5,19.7,0.9,86,50,17,31.98,31.78,8,1,13,0.00
2013-3-20,56.7,40.1,29.7,17.2,4.8,-4.0,50,24,17,32.01,31.81,6,1,12,0.00
2013-3-21,36.5,29.8,24.6,14.5,1.4,-6.5,45,30,22,31.92,31.81,7,2,13,0.00
2013-3-22,49.1,33.7,24.3,10.3,2.4,-3.3,33,27,19,32.04,31.90,7,1,13,0.00
2013-3-23,56.7,36.1,19.4,15.1,6.4,-0.4,54,31,17,32.04,31.95,5,0,11,0.00
2013-3-24,46.4,33.1,24.3,20.5,11.6,2.4,60,42,27,32.04,31.66,4,0,6,0.00
2013-3-25,41.4,35.4,32.7,28.9,24.1,18.5,72,63,51,31.75,31.57,3,0,7,0.00
2013-3-26,52.3,39.1,32.5,23.6,17.2,10.0,66,43,26,32.04,31.75,6,1,10,0.00
2013-3-27,49.5,39.1,33.1,22.2,14.3,10.7,47,37,27,32.16,32.04,6,1,12,0.00
2013-3-28,50.9,40.3,35.1,17.3,13.8,11.0,41,34,26,32.25,32.10,6,1,13,0.00
2013-3-29,60.6,45.6,34.3,19.3,14.6,6.9,46,30,17,32.28,32.19,5,0,8,0.00
2013-3-30,65.3,42.3,25.3,18.5,12.0,4.9,54,32,15,32.22,32.10,4,0,8,0.00
2013-3-31,50.4,40.9,32.5,40.1,26.8,8.7,72,58,36,32.10,31.78,0,0,2,0.00
2013-4-1,57.2,44.0,34.5,43.5,23.6,3.6,82,50,22,31.98,31.78,8,1,13,0.00
2013-4-2,51.6,37.9,29.7,10.4,3.5,-3.3,30,24,19,32.13,31.98,6,1,11,0.00
2013-4-3,54.1,36.3,21.7,11.6,3.9,-4.5,45,26,18,32.34,32.13,7,1,13,0.00
2013-4-4,56.7,36.3,17.4,12.5,4.4,-5.7,45,28,17,32.34,31.98,7,1,12,0.00
2013-4-5,68.2,48.6,33.8,24.9,15.9,4.8,57,30,15,32.04,31.81,7,1,13,0.00
2013-4-6,67.3,45.1,26.1,18.3,8.1,-1.2,41,23,15,32.28,32.04,6,1,10,0.00
2013-4-7,78.6,56.6,36.3,28.1,19.8,8.0,40,24,15,32.19,31.98,5,0,12,0.00
2013-4-8,87.1,64.8,45.5,33.4,27.2,21.5,49,26,13,32.10,31.98,6,0,9,0.00
2013-4-9,95.4,71.7,54.7,37.2,31.8,25.4,45,24,11,32.16,32.01,7,0,11,0.00
2013-4-10,96.1,72.1,52.2,44.6,35.0,28.7,56,30,11,32.04,31.90,7,0,11,0.00
2013-4-11,89.1,70.8,53.1,43.5,36.0,31.1,51,30,15,32.01,31.81,7,1,11,0.00
2013-4-12,79.5,61.4,50.9,59.7,42.2,20.6,83,52,22,31.87,31.66,8,1,15,1.38
2013-4-13,74.5,56.7,45.9,25.7,19.3,9.6,38,24,16,32.01,31.87,7,1,9,0.00
2013-4-14,75.6,53.6,35.4,27.2,20.4,10.6,49,29,15,32.16,32.01,6,0,10,0.00
2013-4-15,71.1,59.4,52.5,38.0,32.0,26.8,50,36,23,32.28,32.13,7,2,13,0.00
2013-4-16,86.0,66.7,54.3,51.9,40.4,35.7,66,41,19,32.28,32.16,8,2,13,0.00
2013-4-17,75.9,64.4,55.8,65.9,50.4,41.8,93,64,32,32.28,32.19,6,0,9,0.00
2013-4-18,81.7,66.9,60.1,53.2,45.7,39.1,68,48,25,32.28,32.04,8,1,13,0.00
2013-4-19,77.2,62.6,49.8,56.9,43.9,21.3,80,52,31,32.01,31.69,8,1,13,0.86
2013-4-20,63.9,49.7,38.5,24.0,15.1,8.0,36,25,16,32.37,31.87,7,1,13,0.00
2013-4-21,64.4,43.6,29.7,20.0,13.8,8.8,52,31,17,32.57,32.40,6,0,9,0.00
2013-4-22,68.2,45.0,29.3,26.4,18.4,13.1,63,37,17,32.54,32.37,7,1,11,0.00
2013-4-23,70.9,48.6,31.6,32.0,23.6,15.3,67,39,22,32.40,32.10,5,1,8,0.00
2013-4-24,84.2,56.8,36.5,47.0,32.8,22.3,72,44,17,32.13,31.81,10,1,13,0.00
2013-4-25,73.8,53.5,41.2,26.1,18.9,11.4,42,27,16,32.34,32.10,6,1,11,0.00
2013-4-26,75.2,51.9,36.3,26.2,20.1,10.3,51,31,16,32.46,32.34,5,0,8,0.00
2013-4-27,79.7,54.1,34.0,32.1,24.2,17.7,66,35,15,32.46,32.31,6,1,10,0.00
2013-4-28,57.9,50.4,39.6,44.3,34.9,22.9,71,56,35,32.31,32.13,6,1,10,0.00
2013-4-29,63.3,56.0,50.9,50.0,45.8,41.9,77,69,55,32.13,32.04,5,0,8,0.00
2013-4-30,63.9,57.3,53.6,53.7,48.4,45.0,81,72,62,32.34,32.10,5,0,8,0.00
2013-5-1,78.3,59.5,46.0,47.9,34.1,21.1,78,45,15,32.46,32.34,7,1,9,0.00
2013-5-2,78.8,55.2,36.3,40.3,28.8,20.8,73,40,15,32.46,32.37,7,1,11,0.00
2013-5-3,78.1,55.5,37.9,44.9,28.8,20.6,74,39,18,32.40,32.31,8,2,13,0.00
2013-5-4,79.3,56.2,38.1,36.2,27.5,19.6,59,36,15,32.37,32.22,8,1,12,0.00
2013-5-5,75.6,53.2,35.2,34.7,25.3,18.8,60,36,15,32.25,32.16,8,1,12,0.00
2013-5-6,58.1,51.5,40.1,51.8,39.2,21.6,82,63,42,32.22,32.07,5,0,10,0.12
2013-5-7,61.7,58.4,55.4,60.9,56.0,51.8,97,92,82,32.07,31.95,6,1,10,1.71
2013-5-8,70.2,57.5,48.9,63.1,50.2,40.4,95,79,39,32.04,31.98,8,0,11,0.16
2013-5-9,78.4,60.2,46.9,56.1,42.3,35.4,87,56,22,32.10,31.95,4,0,8,0.00
2013-5-10,85.6,64.0,48.0,58.0,46.3,37.3,81,57,19,32.07,31.95,4,0,8,0.62
2013-5-11,74.1,64.3,59.2,67.0,54.0,38.8,90,71,41,31.98,31.84,3,0,8,0.00
2013-5-12,66.6,56.0,44.1,40.4,23.5,10.2,54,30,17,32.10,31.87,5,1,11,0.00
2013-5-13,65.1,50.1,41.5,20.6,16.7,11.3,39,27,16,32.22,32.07,6,1,15,0.00
2013-5-14,69.3,49.9,30.9,32.6,21.2,14.8,60,35,17,32.22,32.04,4,0,6,0.00
2013-5-15,92.5,67.4,45.9,45.8,36.2,29.9,63,36,13,32.04,31.78,5,0,9,0.00
2013-5-16,79.3,71.8,63.9,52.3,38.5,28.9,56,30,19,32.07,31.90,5,0,11,0.00
2013-5-17,87.6,68.7,54.7,53.8,41.9,35.0,72,41,18,32.22,32.07,5,0,8,0.00
2013-5-18,74.8,64.7,59.5,51.5,46.8,42.7,67,53,33,32.31,32.22,5,0,8,0.00
2013-5-19,73.2,64.3,59.2,59.6,52.7,49.4,79,67,45,32.28,32.16,5,0,8,0.00
2013-5-20,83.7,70.6,62.4,67.0,57.2,49.8,89,65,33,32.19,32.10,5,0,8,0.62
2013-5-21,93.6,73.6,59.0,64.7,54.2,44.3,84,55,20,32.10,32.01,4,0,11,0.00
2013-5-22,93.4,71.4,61.5,66.7,56.4,41.0,92,65,18,32.10,31.98,6,0,12,3.58
2013-5-23,81.9,68.6,63.3,74.0,62.4,53.7,98,82,46,32.04,31.90,6,0,8,0.00
2013-5-24,64.4,55.8,45.1,57.1,31.7,15.8,78,42,24,32.28,31.90,8,2,13,0.00
2013-5-25,69.4,53.1,40.6,27.4,19.9,14.8,40,28,17,32.28,32.19,6,1,15,0.00
2013-5-26,77.7,57.9,45.3,26.8,22.6,18.0,43,27,15,32.31,32.22,4,0,10,0.00
2013-5-27,69.6,55.0,38.5,40.8,31.7,23.2,65,43,22,32.34,32.25,3,0,5,0.00
2013-5-28,84.7,65.6,52.0,53.5,47.4,39.9,76,54,28,32.25,32.13,6,0,9,0.00
2013-5-29,92.1,73.6,58.1,62.9,49.0,40.5,80,47,17,32.25,32.16,4,0,8,0.00
2013-5-30,92.8,73.8,59.2,62.9,51.9,42.7,72,50,18,32.31,32.25,4,0,7,0.00
2013-5-31,96.4,74.6,57.6,59.6,48.0,40.3,77,44,16,32.28,32.16,5,0,8,0.00
2013-6-1,96.1,77.9,64.8,59.2,50.5,42.9,68,41,17,32.19,32.07,6,0,11,0.00
2013-6-2,85.1,73.7,67.5,66.3,55.2,48.4,72,53,30,32.07,31.98,3,0,6,0.00
2013-6-3,78.1,69.9,61.5,63.6,52.9,40.6,82,57,30,32.13,31.98,3,0,6,0.40
2013-6-4,80.8,63.9,51.6,41.2,35.7,27.7,60,38,17,32.25,32.13,5,0,7,0.00
2013-6-5,83.8,66.0,49.5,50.5,41.1,36.3,69,43,20,32.25,32.13,7,1,10,0.00
2013-6-6,67.8,65.1,61.7,61.0,52.3,41.1,83,64,43,32.16,31.95,5,0,8,0.48
2013-6-7,70.9,67.8,65.7,68.2,64.2,60.4,91,88,83,31.95,31.78,4,0,6,0.40
2013-6-8,82.8,69.4,61.7,63.2,49.5,43.1,87,51,28,32.22,31.87,5,0,10,0.00
2013-6-9,79.7,69.9,61.2,61.2,55.1,50.8,78,60,39,32.31,32.22,5,0,8,0.00
2013-6-10,80.2,71.8,67.8,78.1,67.0,57.9,93,85,68,32.22,31.92,5,0,9,3.44
2013-6-11,82.8,72.8,65.7,73.6,57.3,46.0,98,64,30,32.01,31.92,5,0,11,0.00
2013-6-12,73.0,73.0,73.0,48.9,48.9,48.9,42,42,42,32.04,31.98,0,0,0,0.00
2013-6-13,73.0,73.0,73.0,48.9,48.9,48.9,42,42,42,31.98,31.66,0,0,0,2.05
2013-9-29,89.1,64.2,45.5,50.6,43.5,31.5,96,54,20,32.28,32.16,6,1,8,0.00
2013-9-30,87.6,59.8,39.2,54.5,44.9,38.7,98,67,23,32.28,29.17,4,0,5,0.00
2013-10-1,87.6,67.1,53.6,53.3,49.2,45.3,86,57,28,29.29,29.17,4,0,7,0.00
2013-10-2,91.0,66.7,50.7,54.8,49.7,45.6,89,59,25,29.29,29.20,4,0,7,0.00
2013-10-3,89.6,68.6,53.4,57.6,52.4,47.0,83,60,28,29.32,29.23,6,0,8,0.00
2013-10-4,94.3,71.3,56.5,58.7,54.5,51.1,87,61,27,29.29,29.20,4,0,6,0.00
2013-10-5,93.7,72.9,58.8,58.5,55.2,50.0,88,59,27,29.29,29.17,5,0,8,0.00
2013-10-6,94.5,74.1,57.7,58.7,53.7,48.1,85,54,22,29.20,29.06,9,1,12,0.00
2013-10-7,72.7,63.9,53.8,65.7,51.8,35.4,94,66,40,29.76,28.94,6,1,10,2.92
2013-10-8,76.8,58.1,44.2,43.7,39.1,34.5,85,52,27,29.97,29.76,5,1,9,0.00
2013-10-9,63.1,51.9,41.7,47.5,40.4,36.1,89,67,40,30.03,29.94,4,0,5,0.00
2013-10-10,54.7,52.4,50.7,51.4,48.0,41.7,94,85,68,29.94,29.73,5,1,9,1.52
2013-10-11,58.8,56.0,52.5,57.5,54.2,50.3,96,94,87,29.73,29.70,4,0,7,1.60
2013-10-12,62.8,60.4,57.9,60.6,58.1,55.0,98,92,81,29.88,29.70,4,0,8,1.19
2013-10-13,59.5,57.8,56.7,57.4,55.9,55.1,96,93,88,30.00,29.88,3,0,5,1.15
2013-10-14,73.2,59.1,54.0,56.0,51.9,45.9,95,79,42,30.03,29.91,3,0,5,0.00
2013-10-15,76.1,59.1,47.8,53.6,47.7,40.8,93,71,32,29.91,29.76,5,0,8,0.00
2013-10-16,72.1,59.1,47.1,56.0,49.6,43.9,93,73,42,29.76,29.59,6,0,8,0.00
2013-10-17,77.0,62.6,55.0,61.2,54.0,36.9,94,75,41,29.59,29.38,5,0,11,0.00
2013-10-18,74.8,57.2,41.7,38.6,35.0,30.0,81,45,24,29.70,29.56,7,1,10,0.00
2013-10-19,63.0,49.6,37.0,50.3,37.6,29.6,89,66,44,29.67,29.44,6,1,11,0.00
2013-10-20,71.4,51.4,38.3,34.3,29.4,24.7,77,45,23,29.76,29.59,7,0,8,0.00
2013-10-21,74.1,50.3,31.3,39.4,32.8,27.5,88,57,23,29.82,29.62,8,1,13,0.00
2013-10-22,66.2,52.0,41.9,45.3,35.4,22.4,88,56,29,29.62,29.53,5,1,11,0.00
2013-10-23,52.3,42.1,33.1,35.0,29.7,25.4,86,62,46,29.62,29.41,5,1,9,0.00
2013-10-24,53.6,42.6,37.9,29.7,23.4,20.8,69,47,31,29.82,29.62,6,1,10,0.00
2013-10-25,56.8,41.9,30.2,28.5,22.0,18.1,67,46,32,30.03,29.82,6,2,13,0.00
2013-10-26,60.6,42.1,23.7,26.6,21.6,17.5,80,49,25,31.12,29.73,4,1,10,0.00
2013-10-27,65.1,49.9,34.9,30.6,25.6,21.9,70,40,25,31.12,29.70,6,1,9,0.00
2013-10-28,67.5,44.4,28.6,35.1,28.7,22.9,81,58,27,31.47,29.94,4,0,5,0.00
2013-10-29,68.7,46.4,30.7,37.0,31.5,26.2,86,60,28,31.47,30.15,4,0,6,0.00
2013-10-30,73.0,55.2,44.8,47.3,41.8,35.5,85,63,34,31.47,30.21,4,0,5,0.00
2013-10-31,69.8,60.6,53.2,55.9,50.1,46.1,86,69,45,31.47,29.62,6,0,10,0.00
2013-11-1,77.4,64.4,50.2,55.4,44.0,34.9,82,50,24,31.47,30.47,7,1,17,1.26
2013-11-2,63.3,51.8,41.5,43.5,35.3,27.6,87,56,33,31.47,29.73,7,1,15,0.00
2013-11-3,61.2,47.3,31.1,31.5,23.8,12.8,61,41,21,31.47,23.74,6,2,10,0.00
2013-11-4,46.8,35.2,24.4,21.8,17.7,14.3,75,51,31,31.47,20.12,5,0,6,0.00
2013-11-5,55.0,41.1,28.6,34.0,25.4,20.0,78,56,31,31.47,18.20,4,0,6,0.00
2013-11-6,73.8,57.6,43.3,42.4,39.4,31.4,76,53,31,31.47,18.20,5,1,8,0.00
2013-11-7,59.4,52.5,40.5,53.1,35.3,16.7,90,53,38,31.47,18.20,7,2,15,0.16
2013-11-8,51.4,40.4,27.1,23.3,17.7,14.4,67,41,29,31.47,18.20,8,2,13,0.00
2013-11-9,60.3,40.5,23.5,26.3,20.5,16.6,80,49,25,31.47,19.59,6,0,8,0.00
2013-11-10,61.2,49.1,34.5,29.1,22.4,16.3,57,35,27,31.47,18.20,8,2,19,0.00
2013-11-11,61.5,46.0,34.7,25.9,22.0,17.3,57,40,24,31.47,31.47,5,0,9,0.00
2013-11-12,51.1,37.3,29.5,32.3,16.1,7.0,65,42,33,20.41,18.20,8,3,12,0.00
2013-11-13,46.4,32.9,23.5,16.0,10.8,6.9,53,40,29,31.47,18.20,6,2,11,0.00
2013-11-14,62.2,35.8,19.0,19.5,11.5,5.9,67,43,11,31.47,18.20,3,0,4,0.00
2013-11-15,66.4,41.3,21.4,28.2,15.9,5.9,72,42,10,18.20,18.20,4,0,5,0.00
2013-11-16,67.1,50.4,38.3,43.5,38.5,26.0,87,66,36,18.20,18.20,6,1,10,0.00
2013-11-17,66.2,56.0,45.0,53.3,47.1,40.0,90,73,48,18.20,18.20,7,2,10,0.00
2013-11-18,67.5,57.4,46.6,54.7,26.9,16.3,82,32,18,18.20,18.20,8,3,13,1.18
2013-11-19,49.3,40.4,32.5,21.1,16.1,13.6,51,37,30,18.20,18.20,7,3,17,0.00
2013-11-20,52.0,34.0,22.8,19.9,15.5,9.3,74,49,27,18.20,18.20,6,1,8,0.00
2013-11-21,53.2,35.9,22.3,30.1,23.1,13.8,76,61,40,18.20,18.20,6,0,8,0.00
2013-11-22,61.3,50.0,39.4,48.5,36.9,29.9,79,61,45,18.20,18.20,5,0,8,0.00
2013-11-23,51.1,39.3,26.6,34.6,18.3,6.1,54,43,32,18.20,18.20,8,3,13,0.00
2013-11-24,34.3,24.1,19.6,7.1,0.2,-2.6,48,35,27,18.20,18.20,8,4,16,0.00
2013-11-25,42.3,27.8,13.5,8.7,2.8,-2.4,56,35,21,18.20,18.20,6,0,10,0.00
2013-11-26,36.1,34.9,33.1,31.9,23.7,7.2,89,67,32,18.20,18.20,4,0,6,1.28
2013-11-27,38.5,34.0,25.5,32.1,21.6,5.4,88,61,42,18.20,18.20,9,3,15,0.08
2013-11-28,37.9,29.7,24.1,15.0,9.5,4.4,55,43,36,18.20,18.20,8,2,12,0.00
2013-11-29,43.0,29.9,20.1,19.8,14.7,10.7,71,55,34,18.20,18.20,5,0,8,0.00
2013-11-30,37.9,25.8,15.1,17.7,12.6,6.3,74,59,41,18.20,18.20,7,0,10,0.00
2013-12-1,43.5,30.3,16.9,22.4,17.3,8.4,75,60,41,18.20,18.20,0,0,4,0.00
2013-12-2,45.0,38.4,34.9,27.6,23.9,20.7,72,56,42,18.20,18.20,3,0,4,0.00
2013-12-3,60.6,40.7,30.9,32.5,27.4,24.9,80,62,34,18.20,18.20,4,0,6,0.00
2013-12-4,60.6,41.6,29.5,35.6,30.3,23.5,82,66,38,18.20,18.20,4,0,8,0.00
2013-12-5,71.2,53.1,36.1,56.9,42.3,30.8,92,69,40,18.20,18.20,4,0,8,0.00
2013-12-6,61.2,45.1,36.5,58.9,40.9,32.4,95,85,73,18.20,18.20,7,1,10,2.15
2013-12-7,40.3,34.3,27.9,33.4,21.0,11.1,87,59,43,18.20,18.20,7,1,12,0.04
2013-12-8,28.0,26.0,24.1,22.2,16.0,9.7,82,66,49,18.20,18.20,4,0,6,0.00
2013-12-9,40.5,33.5,28.0,32.0,27.5,22.1,89,79,61,18.20,18.20,4,0,6,0.28
2013-12-10,41.4,33.5,27.9,30.2,19.4,7.1,87,58,40,18.20,18.20,10,1,15,0.08
2013-12-11,46.6,27.9,14.9,16.3,8.7,3.3,66,45,28,18.20,18.20,5,0,9,0.00
2013-12-12,34.5,25.2,12.4,14.1,3.4,-2.9,50,39,30,18.20,18.20,7,2,11,0.00
2013-12-13,46.2,26.1,9.9,15.2,6.6,-5.5,60,45,28,18.20,18.20,4,0,6,0.00
2013-12-14,36.1,32.3,27.5,30.7,25.6,15.2,89,77,59,18.20,18.20,5,0,8,0.48
2013-12-15,41.9,35.4,32.0,31.9,22.1,13.1,92,61,41,18.20,18.20,8,2,12,0.28
2013-12-16,37.4,33.1,30.4,18.8,17.0,14.5,60,52,43,18.20,18.20,6,0,9,0.00
2013-12-17,46.9,34.9,28.8,24.9,21.8,15.3,80,60,41,18.20,18.20,4,0,8,0.00
2013-12-18,42.8,31.7,21.2,18.9,13.6,10.3,72,48,37,18.20,18.20,7,1,11,0.00
2013-12-19,61.7,35.3,18.7,26.5,18.4,11.1,76,54,26,18.20,18.20,4,0,6,0.00
2013-12-20,57.9,44.9,32.2,27.0,24.3,21.1,72,46,29,18.20,18.20,3,0,5,0.00
2013-12-21,71.1,58.7,45.9,50.0,38.2,25.7,56,47,34,18.20,18.20,5,0,11,0.00
2013-12-22,69.3,62.5,57.6,60.0,52.9,49.3,94,72,54,18.20,18.20,5,1,11,0.20
2013-12-23,59.0,49.4,34.7,56.2,38.5,15.5,98,68,44,18.20,18.20,8,1,12,0.44
2013-12-24,40.1,30.0,19.6,17.3,9.6,-1.0,55,42,35,18.20,18.20,8,1,13,0.00
2013-12-25,38.3,25.3,17.2,10.3,4.1,-0.7,47,40,31,18.20,18.20,5,0,9,0.00
2013-12-26,47.3,33.1,21.4,20.4,10.8,5.0,55,40,30,18.20,18.20,6,0,10,0.00
2013-12-27,56.3,35.7,20.8,17.7,11.2,5.1,68,40,15,18.20,18.20,4,0,8,0.00
2013-12-28,62.6,38.9,22.8,24.3,17.3,12.5,71,46,19,18.20,18.20,3,0,6,0.00
2013-12-29,48.6,43.1,36.9,44.5,34.5,18.9,95,73,38,18.20,18.20,6,0,11,0.00
2013-12-30,46.4,37.5,28.0,30.4,21.4,13.4,63,52,46,18.20,18.20,6,0,11,0.00
2013-12-31,42.4,31.0,22.8,19.0,13.3,7.3,74,49,33,18.20,18.20,7,0,13,0.00
2014-1-1,53.1,31.8,20.7,21.8,15.9,10.4,72,54,28,18.20,18.20,5,0,8,0.00
2014-1-2,33.6,30.0,25.7,25.7,21.4,16.4,81,70,53,18.20,18.20,3,0,5,0.00